createdAt,value
2018-02-09T05:04:31.090Z,17.25
2018-02-09T05:06:57.947Z,19.17
2018-02-09T05:09:24.712Z,18.08
2018-02-09T05:11:51.551Z,15.70
2018-02-09T05:14:19.176Z,11.80
2018-02-09T05:16:45.986Z,14.13
2018-02-09T05:19:12.796Z,16.35
2018-02-09T05:21:39.579Z,13.38
2018-02-09T05:24:06.328Z,14.38
2018-02-09T05:26:33.155Z,11.40
2018-02-09T05:28:59.907Z,16.05
2018-02-09T05:31:26.670Z,20.23
2018-02-09T05:33:53.509Z,16.33
2018-02-09T05:36:20.309Z,15.93
2018-02-09T05:38:47.074Z,19.80
2018-02-09T05:41:13.898Z,19.52
2018-02-09T05:43:40.690Z,15.88
2018-02-09T05:46:07.503Z,13.05
2018-02-09T05:48:34.294Z,7.65
2018-02-09T05:51:01.166Z,7.15
2018-02-09T05:53:27.951Z,14.63
2018-02-09T05:55:54.857Z,13.45
2018-02-09T05:58:21.664Z,14.73
2018-02-09T06:00:48.485Z,17.92
2018-02-09T06:03:15.323Z,11.43
2018-02-09T06:05:42.151Z,15.73
2018-02-09T06:08:08.960Z,15.63
2018-02-09T06:10:35.757Z,13.13
2018-02-09T06:13:02.581Z,12.95
2018-02-09T06:15:29.346Z,18.30
2018-02-09T06:17:56.174Z,14.30
2018-02-09T06:20:22.964Z,8.57
2018-02-09T06:22:49.742Z,17.70
2018-02-09T06:25:16.525Z,15.07
2018-02-09T06:27:43.329Z,19.90
2018-02-09T06:30:10.087Z,16.58
2018-02-09T06:32:37.115Z,7.45
2018-02-09T06:35:04.285Z,13.77
2018-02-09T06:37:31.092Z,11.48
2018-02-09T06:39:57.922Z,10.98
2018-02-09T06:42:24.684Z,17.00
2018-02-09T06:44:51.453Z,14.20
2018-02-09T06:47:18.271Z,12.10
2018-02-09T06:49:45.073Z,15.85
2018-02-09T06:52:11.856Z,6.30
2018-02-09T06:54:38.671Z,12.45
2018-02-09T06:57:05.787Z,16.20
2018-02-09T06:59:32.562Z,13.35
2018-02-09T07:01:59.362Z,11.50
2018-02-09T07:04:26.140Z,12.18
2018-02-09T07:06:52.952Z,17.58
2018-02-09T07:09:19.766Z,18.27
2018-02-09T07:11:46.557Z,17.15
2018-02-09T07:14:14.171Z,17.50
2018-02-09T07:16:41.008Z,20.70
2018-02-09T07:19:07.798Z,20.35
2018-02-09T07:21:34.571Z,10.45
2018-02-09T07:24:01.438Z,14.45
2018-02-09T07:26:28.218Z,17.02
2018-02-09T07:28:55.656Z,16.12
2018-02-09T07:31:22.475Z,19.05
2018-02-09T07:33:49.256Z,16.52
2018-02-09T07:36:16.062Z,19.50
2018-02-09T07:38:42.846Z,20.67
2018-02-09T07:41:09.653Z,16.30
2018-02-09T07:43:36.446Z,19.17
2018-02-09T07:46:03.271Z,13.52
2018-02-09T07:48:30.057Z,19.83
2018-02-09T07:50:56.833Z,20.58
2018-02-09T07:53:23.638Z,18.70
2018-02-09T07:55:50.441Z,17.92
2018-02-09T07:58:17.219Z,23.85
2018-02-09T08:00:44.036Z,20.30
2018-02-09T08:03:11.557Z,18.15
2018-02-09T08:05:38.667Z,20.80
2018-02-09T08:08:05.452Z,21.23
2018-02-09T08:10:32.229Z,22.50
2018-02-09T08:12:59.017Z,17.12
2018-02-09T08:15:25.816Z,16.27
2018-02-09T08:17:52.579Z,13.88
2018-02-09T08:20:19.538Z,18.05
2018-02-09T08:22:46.340Z,19.30
2018-02-09T08:25:13.095Z,24.90
2018-02-09T08:27:39.871Z,21.33
2018-02-09T08:30:06.730Z,22.52
2018-02-09T08:32:33.495Z,12.27
2018-02-09T08:35:00.270Z,23.42
2018-02-09T08:37:27.071Z,22.17
2018-02-09T08:39:53.854Z,10.68
2018-02-09T08:42:20.669Z,20.40
2018-02-09T08:44:47.473Z,19.37
2018-02-09T08:47:14.238Z,17.60
2018-02-09T08:49:41.007Z,25.10
2018-02-09T08:52:07.820Z,16.35
2018-02-09T08:54:34.591Z,14.77
2018-02-09T08:57:01.362Z,24.73
2018-02-09T08:59:28.181Z,14.23
2018-02-09T09:01:54.985Z,20.33
2018-02-09T09:04:21.750Z,18.87
2018-02-09T09:06:48.571Z,17.77
2018-02-09T09:09:15.345Z,16.23
2018-02-09T09:11:42.444Z,15.90
2018-02-09T09:14:09.252Z,7.72
2018-02-09T09:16:36.983Z,23.42
2018-02-09T09:19:03.753Z,15.88
2018-02-09T09:21:30.583Z,11.20
2018-02-09T09:23:57.381Z,26.42
2018-02-09T09:26:24.142Z,8.90
2018-02-09T09:28:50.962Z,19.77
2018-02-09T09:31:18.401Z,15.50
2018-02-09T09:33:45.201Z,20.17
2018-02-09T09:36:12.046Z,21.40
2018-02-09T09:38:38.833Z,16.12
2018-02-09T09:41:05.958Z,22.73
2018-02-09T09:43:33.485Z,20.52
2018-02-09T09:46:01.904Z,27.98
2018-02-09T09:48:28.683Z,22.77
2018-02-09T09:50:55.498Z,19.30
2018-02-09T09:53:22.309Z,22.83
2018-02-09T09:55:49.115Z,13.10
2018-02-09T09:58:15.935Z,22.50
2018-02-09T10:00:42.732Z,24.77
2018-02-09T10:03:09.504Z,21.95
2018-02-09T10:05:36.318Z,4.18
2018-02-09T10:08:03.086Z,21.52
2018-02-09T10:10:29.897Z,24.35
2018-02-09T10:12:56.765Z,18.92
2018-02-09T10:15:23.550Z,21.45
2018-02-09T10:17:50.338Z,27.33
2018-02-09T10:20:17.167Z,20.10
2018-02-09T10:22:43.944Z,18.58
2018-02-09T10:25:10.720Z,18.42
2018-02-09T10:27:37.527Z,20.65
2018-02-09T10:30:04.302Z,25.33
2018-02-09T10:32:31.067Z,36.65
2018-02-09T10:34:57.873Z,19.77
2018-02-09T10:37:24.656Z,29.92
2018-02-09T10:39:51.422Z,18.40
2018-02-09T10:42:18.245Z,26.52
2018-02-09T10:44:45.052Z,25.85
2018-02-09T10:47:11.802Z,25.33
2018-02-09T10:49:38.627Z,17.10
2018-02-09T10:52:05.425Z,22.67
2018-02-09T10:54:32.218Z,18.30
2018-02-09T10:56:59.033Z,28.12
2018-02-09T10:59:25.860Z,27.15
2018-02-09T11:01:52.627Z,23.90
2018-02-09T11:04:19.788Z,22.87
2018-02-09T11:06:46.595Z,8.27
2018-02-09T11:09:13.413Z,28.00
2018-02-09T11:11:40.248Z,24.30
2018-02-09T11:14:07.659Z,28.43
2018-02-09T11:16:34.449Z,34.93
2018-02-09T11:19:01.535Z,25.90
2018-02-09T11:21:28.317Z,25.17
2018-02-09T11:23:55.336Z,22.20
2018-02-09T11:26:22.931Z,24.47
2018-02-09T11:28:49.699Z,27.98
2018-02-09T11:31:16.455Z,20.70
2018-02-09T11:33:43.267Z,29.03
2018-02-09T11:36:10.034Z,27.73
2018-02-09T11:38:36.842Z,33.40
2018-02-09T11:41:03.680Z,32.40
2018-02-09T11:43:30.535Z,29.97
2018-02-09T11:45:57.330Z,26.45
2018-02-09T11:48:24.152Z,31.37
2018-02-09T11:50:50.949Z,27.83
2018-02-09T11:53:17.763Z,19.27
2018-02-09T11:55:44.571Z,19.85
2018-02-09T11:58:11.354Z,33.78
2018-02-09T12:00:38.171Z,9.53
2018-02-09T12:03:04.956Z,27.80
2018-02-09T12:05:31.758Z,26.35
2018-02-09T12:07:58.528Z,25.33
2018-02-09T12:10:25.355Z,12.27
2018-02-09T12:12:52.121Z,28.50
2018-02-09T12:15:18.966Z,26.77
2018-02-09T12:17:45.794Z,28.10
2018-02-09T12:20:12.576Z,34.55
2018-02-09T12:22:39.344Z,28.00
2018-02-09T12:25:06.114Z,32.07
2018-02-09T12:27:32.878Z,25.97
2018-02-09T12:29:59.652Z,20.87
2018-02-09T12:32:26.470Z,32.30
2018-02-09T12:34:53.244Z,32.73
2018-02-09T12:37:20.002Z,29.53
2018-02-09T12:39:46.843Z,32.83
2018-02-09T12:42:13.623Z,25.83
2018-02-09T12:44:40.392Z,33.42
2018-02-09T12:47:07.213Z,30.55
2018-02-09T12:49:34.030Z,30.88
2018-02-09T12:52:00.797Z,34.60
2018-02-09T12:54:27.601Z,30.47
2018-02-09T12:56:54.373Z,24.80
2018-02-09T12:59:21.148Z,29.27
2018-02-09T13:01:47.980Z,21.12
2018-02-09T13:04:14.765Z,30.42
2018-02-09T13:06:41.546Z,20.40
2018-02-09T13:09:08.354Z,30.30
2018-02-09T13:11:35.130Z,34.90
2018-02-09T13:14:01.976Z,23.53
2018-02-09T13:16:28.791Z,25.08
2018-02-09T13:18:55.606Z,28.53
2018-02-09T13:21:22.423Z,29.73
2018-02-09T13:23:55.245Z,24.23
2018-02-09T13:26:22.027Z,27.30
2018-02-09T13:28:55.276Z,28.67
2018-02-09T13:31:22.445Z,29.87
2018-02-09T13:33:49.206Z,28.57
2018-02-09T13:36:15.995Z,28.48
2018-02-09T13:38:43.120Z,34.00
2018-02-09T13:41:09.903Z,21.27
2018-02-09T13:43:37.367Z,27.02
2018-02-09T13:46:04.191Z,33.47
2018-02-09T13:48:31.440Z,30.62
2018-02-09T13:50:58.211Z,31.95
2018-02-09T13:53:25.038Z,24.98
2018-02-09T13:55:51.829Z,32.55
2018-02-09T13:58:18.607Z,32.13
2018-02-09T14:00:45.407Z,29.23
2018-02-09T14:03:12.164Z,31.30
2018-02-09T14:05:38.975Z,32.88
2018-02-09T14:08:05.789Z,30.08
2018-02-09T14:10:32.567Z,32.72
2018-02-09T14:13:00.136Z,30.37
2018-02-09T14:15:26.981Z,26.65
2018-02-09T14:17:53.774Z,29.15
2018-02-09T14:20:20.542Z,31.77
2018-02-09T14:22:47.346Z,31.03
2018-02-09T14:25:15.233Z,34.28
2018-02-09T14:27:42.008Z,27.77
2018-02-09T14:30:08.837Z,29.40
2018-02-09T14:32:35.634Z,33.45
2018-02-09T14:35:02.429Z,30.92
2018-02-09T14:37:29.268Z,29.98
2018-02-09T14:39:56.344Z,31.23
2018-02-09T14:42:23.135Z,28.80
2018-02-09T14:44:50.624Z,30.30
2018-02-09T14:47:17.391Z,32.50
2018-02-09T14:49:44.884Z,30.75
2018-02-09T14:52:11.697Z,30.20
2018-02-09T14:54:38.494Z,32.65
2018-02-09T14:57:05.309Z,30.52
2018-02-09T14:59:32.144Z,29.27
2018-02-09T15:01:58.935Z,23.80
2018-02-09T15:04:25.767Z,30.30
2018-02-09T15:06:52.575Z,29.08
2018-02-09T15:09:19.361Z,24.75
2018-02-09T15:11:46.143Z,28.97
2018-02-09T15:14:13.112Z,31.03
2018-02-09T15:16:39.893Z,35.03
2018-02-09T15:19:06.698Z,30.85
2018-02-09T15:21:33.510Z,32.88
2018-02-09T15:24:00.293Z,27.67
2018-02-09T15:26:27.093Z,27.23
2018-02-09T15:28:53.921Z,26.62
2018-02-09T15:31:20.687Z,28.65
2018-02-09T15:33:47.454Z,28.25
2018-02-09T15:36:14.290Z,24.67
2018-02-09T15:38:41.062Z,30.58
2018-02-09T15:41:07.879Z,28.80
2018-02-09T15:43:34.722Z,32.25
2018-02-09T15:46:01.515Z,26.75
2018-02-09T15:48:28.287Z,24.73
2018-02-09T15:50:55.116Z,25.67
2018-02-09T15:53:21.897Z,28.38
2018-02-09T15:55:48.667Z,27.80
2018-02-09T15:58:15.471Z,29.27
2018-02-09T16:00:42.518Z,29.30
2018-02-09T16:03:09.299Z,29.08
2018-02-09T16:05:36.127Z,29.40
2018-02-09T16:08:02.930Z,22.50
2018-02-09T16:10:29.751Z,25.15
2018-02-09T16:12:56.601Z,28.70
2018-02-09T16:15:23.452Z,33.92
2018-02-09T16:17:50.235Z,30.88
2018-02-09T16:20:17.538Z,27.85
2018-02-09T16:22:44.315Z,28.48
2018-02-09T16:25:11.879Z,27.42
2018-02-09T16:27:38.723Z,32.88
2018-02-09T16:30:05.570Z,28.20
2018-02-09T16:32:32.407Z,25.92
2018-02-09T16:34:59.845Z,27.45
2018-02-09T16:37:26.698Z,32.00
2018-02-09T16:39:54.119Z,34.47
2018-02-09T16:42:20.914Z,20.88
2018-02-09T16:44:47.745Z,26.50
2018-02-09T16:47:14.585Z,27.17
2018-02-09T16:49:41.428Z,32.72
2018-02-09T16:52:08.234Z,22.05
2018-02-09T16:54:35.993Z,28.20
2018-02-09T16:57:02.858Z,33.88
2018-02-09T16:59:29.742Z,29.83
2018-02-09T17:01:56.566Z,29.10
2018-02-09T17:04:23.400Z,25.12
2018-02-09T17:06:51.028Z,29.85
2018-02-09T17:09:17.818Z,27.05
2018-02-09T17:11:44.673Z,29.23
2018-02-09T17:14:11.455Z,23.05
2018-02-09T17:16:38.851Z,27.05
2018-02-09T17:19:05.697Z,26.65
2018-02-09T17:21:33.248Z,28.25
2018-02-09T17:24:00.038Z,31.17
2018-02-09T17:26:26.857Z,30.67
2018-02-09T17:28:53.638Z,29.87
2018-02-09T17:31:20.425Z,24.70
2018-02-09T17:33:47.269Z,31.45
2018-02-09T17:36:14.063Z,34.13
2018-02-09T17:38:40.874Z,25.08
2018-02-09T17:41:07.662Z,24.10
2018-02-09T17:43:34.457Z,30.70
2018-02-09T17:46:01.241Z,30.10
2018-02-09T17:48:28.042Z,26.00
2018-02-09T17:50:54.811Z,29.85
2018-02-09T17:53:21.574Z,29.23
2018-02-09T17:55:48.342Z,30.37
2018-02-09T17:58:15.120Z,34.10
2018-02-09T18:00:41.987Z,28.40
2018-02-09T18:03:08.807Z,29.12
2018-02-09T18:05:35.578Z,28.95
2018-02-09T18:08:02.405Z,32.05
2018-02-09T18:10:29.195Z,29.33
2018-02-09T18:12:55.988Z,21.42
2018-02-09T18:15:22.808Z,30.50
2018-02-09T18:17:50.249Z,27.60
2018-02-09T18:20:17.066Z,26.77
2018-02-09T18:25:53.568Z,28.60
2018-02-09T18:28:20.365Z,31.45
2018-02-09T18:30:47.145Z,21.08
2018-02-09T18:33:13.964Z,26.15
2018-02-09T18:35:40.749Z,25.27
2018-02-09T18:38:07.691Z,31.00
2018-02-09T18:40:34.459Z,27.45
2018-02-09T18:43:01.365Z,28.60
2018-02-09T18:45:28.197Z,23.62
2018-02-09T18:47:55.472Z,20.35
2018-02-09T18:50:22.228Z,26.35
2018-02-09T18:52:48.997Z,27.37
2018-02-09T18:55:15.775Z,27.98
2018-02-09T18:57:42.613Z,26.70
2018-02-09T19:00:09.423Z,27.20
2018-02-09T19:02:36.201Z,17.37
2018-02-09T19:05:02.967Z,24.23
2018-02-09T19:07:29.795Z,25.83
2018-02-09T19:09:56.639Z,27.98
2018-02-09T19:12:24.200Z,25.95
2018-02-09T19:14:51.566Z,22.48
2018-02-09T19:17:18.400Z,18.65
2018-02-09T19:19:45.827Z,22.62
2018-02-09T19:22:12.613Z,22.17
2018-02-09T19:24:39.421Z,25.25
2018-02-09T19:27:06.925Z,24.00
2018-02-09T19:29:33.709Z,24.40
2018-02-09T19:32:01.106Z,33.65
2018-02-09T19:34:28.076Z,25.92
2018-02-09T19:36:55.608Z,27.48
2018-02-09T19:39:22.407Z,28.70
2018-02-09T19:41:49.547Z,27.75
2018-02-09T19:44:17.058Z,31.20
2018-02-09T19:46:43.823Z,28.25
2018-02-09T19:49:10.626Z,29.90
2018-02-09T19:51:37.949Z,26.58
2018-02-09T19:54:04.730Z,24.90
2018-02-09T19:56:31.537Z,29.33
2018-02-09T19:58:58.475Z,24.80
2018-02-09T20:01:25.235Z,30.23
2018-02-09T20:03:52.015Z,26.27
2018-02-09T20:06:18.832Z,29.80
2018-02-09T20:08:45.764Z,25.55
2018-02-09T20:11:12.842Z,14.52
2018-02-09T20:13:39.683Z,26.20
2018-02-09T20:16:06.684Z,27.02
2018-02-09T20:18:33.471Z,23.92
2018-02-09T20:21:00.423Z,23.98
2018-02-09T20:23:27.796Z,27.40
2018-02-09T20:25:54.739Z,19.50
2018-02-09T20:28:22.324Z,23.45
2018-02-09T20:30:49.158Z,24.33
2018-02-09T20:33:16.641Z,26.23
2018-02-09T20:35:43.419Z,14.32
2018-02-09T20:38:10.639Z,24.05
2018-02-09T20:40:37.697Z,22.75
2018-02-09T20:43:04.773Z,24.12
2018-02-09T20:45:32.269Z,29.80
2018-02-09T20:48:00.088Z,29.35
2018-02-09T20:50:27.305Z,30.33
2018-02-09T20:52:54.210Z,28.17
2018-02-09T20:55:21.615Z,28.40
2018-02-09T20:57:49.206Z,30.88
2018-02-09T21:00:16.134Z,26.33
2018-02-09T21:02:43.770Z,27.73
2018-02-09T21:05:11.215Z,20.67
2018-02-09T21:07:37.990Z,17.65
2018-02-09T21:10:05.346Z,26.25
2018-02-09T21:12:32.189Z,25.40
2018-02-09T21:14:59.071Z,23.12
2018-02-09T21:17:25.863Z,27.55
2018-02-09T21:19:52.622Z,27.85
2018-02-09T21:22:19.425Z,34.53
2018-02-09T21:24:46.199Z,23.98
2018-02-09T21:27:12.997Z,23.20
2018-02-09T21:29:40.066Z,23.55
2018-02-09T21:32:06.870Z,18.90
2018-02-09T21:34:33.653Z,24.23
2018-02-09T21:37:00.407Z,16.50
2018-02-09T21:39:27.310Z,29.37
2018-02-09T21:41:54.199Z,27.45
2018-02-09T21:44:20.959Z,25.30
2018-02-09T21:46:47.734Z,27.20
2018-02-09T21:49:14.565Z,21.80
2018-02-09T21:51:41.350Z,20.67
2018-02-09T21:54:08.103Z,24.92
2018-02-09T21:56:34.885Z,24.60
2018-02-09T21:59:01.643Z,19.08
2018-02-09T22:01:28.416Z,25.83
2018-02-09T22:03:55.200Z,28.83
2018-02-09T22:06:22.085Z,28.75
2018-02-09T22:08:48.858Z,22.05
2018-02-09T22:11:15.629Z,28.98
2018-02-09T22:13:42.414Z,23.17
2018-02-09T22:16:09.183Z,29.87
2018-02-09T22:18:35.974Z,31.62
2018-02-09T22:21:02.744Z,29.02
2018-02-09T22:23:29.580Z,27.13
2018-02-09T22:25:56.373Z,28.80
2018-02-09T22:28:23.175Z,25.95
2018-02-09T22:30:49.933Z,31.42
2018-02-09T22:33:16.726Z,30.58
2018-02-09T22:35:44.107Z,13.95
2018-02-09T22:38:10.886Z,17.42
2018-02-09T22:40:38.402Z,21.62
2018-02-09T22:43:05.192Z,13.00
2018-02-09T22:45:31.981Z,18.10
2018-02-09T22:47:58.766Z,26.02
2018-02-09T22:50:25.546Z,21.62
2018-02-09T22:52:52.333Z,22.05
2018-02-09T22:55:19.102Z,17.65
2018-02-09T22:57:45.933Z,20.23
2018-02-09T23:00:13.766Z,21.12
2018-02-09T23:02:40.549Z,28.30
2018-02-09T23:05:07.342Z,27.85
2018-02-09T23:07:34.121Z,30.15
2018-02-09T23:10:00.913Z,22.50
2018-02-09T23:12:27.792Z,29.20
2018-02-09T23:14:54.642Z,16.52
2018-02-09T23:17:21.463Z,24.55
2018-02-09T23:19:48.281Z,23.92
2018-02-09T23:22:15.068Z,24.45
2018-02-09T23:24:41.862Z,20.33
2018-02-09T23:27:08.643Z,28.87
2018-02-09T23:29:35.412Z,29.98
2018-02-09T23:32:02.241Z,31.40
2018-02-09T23:34:28.995Z,26.02
2018-02-09T23:36:55.775Z,33.92
2018-02-09T23:39:22.577Z,31.83
2018-02-09T23:41:49.379Z,34.75
2018-02-09T23:44:16.771Z,31.90
2018-02-09T23:46:43.553Z,29.98
2018-02-09T23:49:10.351Z,36.15
2018-02-09T23:51:37.121Z,32.78
2018-02-09T23:54:03.894Z,33.30
2018-02-09T23:56:31.386Z,29.08
2018-02-09T23:58:59.051Z,27.37
